createdAt,value
2019-01-29T00:02:13.003Z,1.17
2019-01-29T00:04:42.376Z,1.30
2019-01-29T00:07:11.724Z,1.38
2019-01-29T00:09:41.417Z,1.31
2019-01-29T00:12:10.760Z,1.27
2019-01-29T00:14:40.316Z,1.18
2019-01-29T00:17:09.628Z,1.13
2019-01-29T00:19:38.891Z,1.13
2019-01-29T00:22:08.136Z,1.17
2019-01-29T00:24:37.420Z,1.06
2019-01-29T00:27:06.894Z,0.94
2019-01-29T00:29:36.283Z,0.92
2019-01-29T00:32:05.780Z,0.91
2019-01-29T00:34:35.062Z,0.87
2019-01-29T00:37:04.503Z,0.91
2019-01-29T00:39:33.796Z,0.78
2019-01-29T00:42:03.441Z,0.77
2019-01-29T00:44:32.751Z,0.92
2019-01-29T00:47:02.199Z,0.94
2019-01-29T00:49:31.599Z,1.03
2019-01-29T00:52:00.973Z,1.05
2019-01-29T00:54:30.334Z,1.11
2019-01-29T00:56:59.759Z,1.14
2019-01-29T00:59:48.144Z,1.25
2019-01-29T01:02:36.531Z,1.26
2019-01-29T01:05:06.320Z,1.38
2019-01-29T01:07:37.982Z,1.39
2019-01-29T01:10:08.403Z,1.35
2019-01-29T01:12:37.833Z,1.36
2019-01-29T01:15:08.463Z,1.35
2019-01-29T01:17:56.980Z,1.28
2019-01-29T01:20:26.443Z,1.17
2019-01-29T01:22:56.014Z,1.09
2019-01-29T01:25:44.511Z,1.00
2019-01-29T01:28:13.941Z,0.90
2019-01-29T01:30:43.643Z,0.85
2019-01-29T01:33:13.213Z,0.83
2019-01-29T01:36:01.739Z,0.81
2019-01-29T01:38:31.268Z,0.73
2019-01-29T01:41:00.767Z,0.76
2019-01-29T01:43:30.254Z,0.80
2019-01-29T01:45:59.709Z,0.76
2019-01-29T01:48:48.067Z,0.63
2019-01-29T01:51:21.190Z,0.57
2019-01-29T01:53:52.941Z,0.54
2019-01-29T01:56:22.319Z,0.49
2019-01-29T01:58:51.817Z,0.40
2019-01-29T02:01:21.096Z,0.37
2019-01-29T02:03:50.516Z,0.31
2019-01-29T02:06:19.802Z,0.18
2019-01-29T02:08:49.250Z,0.22
2019-01-29T02:11:18.462Z,0.22
2019-01-29T02:13:48.329Z,0.24
2019-01-29T02:16:17.696Z,0.25
2019-01-29T02:19:06.102Z,0.21
2019-01-29T02:21:35.437Z,0.09
2019-01-29T02:24:04.796Z,0.04
2019-01-29T02:26:53.286Z,0.09
2019-01-29T02:29:22.662Z,0.13
2019-01-29T02:31:51.929Z,0.15
2019-01-29T02:34:21.396Z,0.13
2019-01-29T02:36:50.649Z,0.17
2019-01-29T02:39:20.385Z,0.20
2019-01-29T02:41:49.745Z,0.28
2019-01-29T02:44:19.153Z,0.35
2019-01-29T02:46:48.457Z,0.43
2019-01-29T02:49:17.800Z,0.48
2019-01-29T02:51:47.201Z,0.50
2019-01-29T02:54:16.496Z,0.51
2019-01-29T02:56:45.859Z,0.48
2019-01-29T02:59:15.365Z,0.43
2019-01-29T03:01:44.687Z,0.38
2019-01-29T03:04:14.067Z,0.30
2019-01-29T03:06:43.344Z,0.31
2019-01-29T03:09:12.734Z,0.26
2019-01-29T03:11:42.029Z,0.25
2019-01-29T03:14:11.335Z,0.23
2019-01-29T03:16:40.713Z,0.26
2019-01-29T03:19:10.057Z,0.29
2019-01-29T03:21:39.465Z,0.27
2019-01-29T03:24:08.820Z,0.27
2019-01-29T03:26:38.359Z,0.28
2019-01-29T03:29:07.810Z,0.27
2019-01-29T03:31:37.086Z,0.22
2019-01-29T03:34:06.459Z,0.15
2019-01-29T03:36:35.827Z,0.07
2019-01-29T03:39:08.338Z,0.02
2019-01-29T03:41:38.253Z,-0.02
2019-01-29T03:44:07.685Z,0.00
2019-01-29T03:46:36.991Z,0.01
2019-01-29T03:49:06.515Z,0.06
2019-01-29T03:51:35.959Z,0.14
2019-01-29T03:54:05.716Z,0.13
2019-01-29T03:56:35.224Z,0.16
2019-01-29T03:59:04.843Z,0.18
2019-01-29T04:01:34.355Z,0.27
2019-01-29T04:04:03.567Z,0.37
2019-01-29T04:06:32.909Z,0.42
2019-01-29T04:09:02.243Z,0.56
2019-01-29T04:11:31.559Z,0.63
2019-01-29T04:14:00.932Z,0.60
2019-01-29T04:16:30.312Z,0.61
2019-01-29T04:18:59.626Z,0.65
2019-01-29T04:21:28.889Z,0.68
2019-01-29T04:23:58.317Z,0.61
2019-01-29T04:26:27.761Z,0.60
2019-01-29T04:28:57.137Z,0.60
2019-01-29T04:31:26.626Z,0.57
2019-01-29T04:33:55.877Z,0.51
2019-01-29T04:36:25.205Z,0.47
2019-01-29T04:38:54.501Z,0.44
2019-01-29T04:41:23.882Z,0.37
2019-01-29T04:43:53.375Z,0.34
2019-01-29T04:46:22.795Z,0.23
2019-01-29T04:48:52.102Z,0.27
2019-01-29T04:51:21.544Z,0.24
2019-01-29T04:53:57.249Z,0.23
2019-01-29T04:56:22.022Z,0.20
2019-01-29T04:58:51.430Z,0.10
2019-01-29T05:01:20.870Z,-0.02
2019-01-29T05:03:50.221Z,-0.11
2019-01-29T05:06:19.751Z,-0.19
2019-01-29T05:08:49.130Z,-0.24
2019-01-29T05:11:18.573Z,-0.26
2019-01-29T05:13:47.867Z,-0.25
2019-01-29T05:16:17.681Z,-0.32
2019-01-29T05:18:47.014Z,-0.35
2019-01-29T05:21:16.320Z,-0.38
2019-01-29T05:23:45.721Z,-0.39
2019-01-29T05:26:15.193Z,-0.37
2019-01-29T05:28:44.634Z,-0.30
2019-01-29T05:31:13.940Z,-0.30
2019-01-29T05:33:43.360Z,-0.26
2019-01-29T05:36:12.715Z,-0.23
2019-01-29T05:38:42.133Z,-0.20
2019-01-29T05:41:11.539Z,-0.18
2019-01-29T05:43:40.910Z,-0.13
2019-01-29T05:46:10.324Z,-0.16
2019-01-29T05:48:39.728Z,-0.14
2019-01-29T05:51:09.192Z,-0.08
2019-01-29T05:53:38.629Z,-0.02
2019-01-29T05:56:08.102Z,-0.02
2019-01-29T05:58:37.462Z,0.05
2019-01-29T06:01:07.126Z,0.05
2019-01-29T06:03:36.480Z,0.02
2019-01-29T06:06:06.078Z,-0.05
2019-01-29T06:08:35.537Z,-0.08
2019-01-29T06:11:04.854Z,-0.10
2019-01-29T06:13:34.258Z,-0.14
2019-01-29T06:16:03.786Z,-0.17
2019-01-29T06:18:33.167Z,-0.26
2019-01-29T06:21:03.110Z,-0.33
2019-01-29T06:23:32.522Z,-0.39
2019-01-29T06:26:02.248Z,-0.22
2019-01-29T06:28:31.654Z,-0.30
2019-01-29T06:31:01.059Z,-0.40
2019-01-29T06:33:30.586Z,-0.46
2019-01-29T06:35:59.914Z,-0.41
2019-01-29T06:38:29.273Z,-0.45
2019-01-29T06:40:58.609Z,-0.45
2019-01-29T06:43:27.947Z,-0.40
2019-01-29T06:45:57.354Z,-0.41
2019-01-29T06:48:26.700Z,-0.43
2019-01-29T06:50:56.111Z,-0.40
2019-01-29T06:53:25.574Z,-0.43
2019-01-29T06:55:55.009Z,-0.40
2019-01-29T06:58:24.548Z,-0.28
2019-01-29T07:00:53.909Z,-0.16
2019-01-29T07:03:23.362Z,-0.04
2019-01-29T07:05:52.775Z,0.07
2019-01-29T07:08:22.178Z,0.11
2019-01-29T07:10:54.158Z,0.27
2019-01-29T07:13:23.749Z,0.43
2019-01-29T07:16:12.641Z,0.45
2019-01-29T07:19:32.031Z,0.49
2019-01-29T07:22:01.812Z,0.56
2019-01-29T07:24:32.219Z,0.60
2019-01-29T07:27:01.617Z,0.63
2019-01-29T07:29:31.079Z,0.67
2019-01-29T07:32:00.535Z,0.70
2019-01-29T07:34:29.919Z,0.74
2019-01-29T07:36:59.522Z,0.80
2019-01-29T07:39:29.090Z,0.79
2019-01-29T07:41:58.434Z,0.85
2019-01-29T07:44:27.841Z,0.91
2019-01-29T07:46:57.136Z,0.96
2019-01-29T07:49:26.799Z,0.96
2019-01-29T07:51:56.236Z,1.00
2019-01-29T07:54:33.249Z,1.02
2019-01-29T07:56:58.431Z,1.03
2019-01-29T07:59:33.061Z,1.06
2019-01-29T08:02:00.930Z,1.12
2019-01-29T08:04:30.406Z,1.19
2019-01-29T08:06:59.687Z,1.28
2019-01-29T08:09:49.608Z,1.33
2019-01-29T08:12:18.975Z,1.35
2019-01-29T08:14:48.687Z,1.40
2019-01-29T08:17:18.297Z,1.38
2019-01-29T08:19:48.617Z,1.37
2019-01-29T08:22:18.097Z,1.39
2019-01-29T08:24:52.102Z,1.37
2019-01-29T08:27:18.838Z,1.40
2019-01-29T08:29:48.233Z,1.40
2019-01-29T08:32:17.543Z,1.41
2019-01-29T08:34:46.896Z,1.45
2019-01-29T08:37:16.609Z,1.49
2019-01-29T08:39:46.012Z,1.54
2019-01-29T08:42:15.857Z,1.59
2019-01-29T08:44:46.106Z,1.59
2019-01-29T08:47:15.453Z,1.60
2019-01-29T08:49:44.795Z,1.63
2019-01-29T08:52:14.160Z,1.64
2019-01-29T08:54:43.593Z,1.68
2019-01-29T08:57:12.951Z,1.71
2019-01-29T08:59:42.357Z,1.72
2019-01-29T09:02:11.746Z,1.72
2019-01-29T09:04:42.278Z,1.74
2019-01-29T09:07:16.232Z,1.81
2019-01-29T09:09:45.721Z,1.89
2019-01-29T09:12:15.151Z,2.05
2019-01-29T09:14:44.795Z,2.19
2019-01-29T09:17:14.976Z,2.28
2019-01-29T09:19:44.465Z,2.32
2019-01-29T09:22:13.939Z,2.40
2019-01-29T09:24:43.282Z,2.48
2019-01-29T09:27:12.652Z,2.47
2019-01-29T09:29:42.459Z,2.53
2019-01-29T09:32:11.834Z,2.63
2019-01-29T09:34:41.269Z,2.81
2019-01-29T09:37:10.652Z,2.99
2019-01-29T09:39:40.131Z,2.95
2019-01-29T09:42:09.531Z,3.02
2019-01-29T09:44:38.981Z,2.99
2019-01-29T09:47:08.992Z,2.92
2019-01-29T09:49:38.378Z,2.85
2019-01-29T09:52:07.709Z,2.70
2019-01-29T09:54:37.054Z,2.73
2019-01-29T09:57:06.432Z,2.89
2019-01-29T09:59:36.885Z,2.87
2019-01-29T10:02:06.293Z,2.88
2019-01-29T10:04:35.725Z,3.00
2019-01-29T10:07:05.168Z,3.11
2019-01-29T10:09:34.632Z,3.14
2019-01-29T10:12:04.158Z,3.25
2019-01-29T10:14:33.492Z,3.20
2019-01-29T10:17:02.961Z,3.17
2019-01-29T10:19:32.305Z,3.08
2019-01-29T10:22:01.833Z,3.12
2019-01-29T10:24:31.230Z,3.23
2019-01-29T10:27:01.269Z,3.35
2019-01-29T10:29:30.763Z,3.62
2019-01-29T10:32:00.111Z,3.62
2019-01-29T10:34:29.391Z,3.53
2019-01-29T10:36:58.789Z,3.41
2019-01-29T10:39:28.191Z,3.43
2019-01-29T10:41:57.638Z,3.34
2019-01-29T10:44:27.691Z,3.35
2019-01-29T10:46:57.162Z,3.43
2019-01-29T10:49:26.733Z,3.70
2019-01-29T10:51:56.491Z,4.00
2019-01-29T10:54:25.797Z,4.26
2019-01-29T10:56:55.223Z,4.30
2019-01-29T10:59:24.627Z,4.11
2019-01-29T11:01:54.112Z,4.20
2019-01-29T11:04:23.433Z,4.05
2019-01-29T11:06:52.786Z,4.08
2019-01-29T11:09:25.505Z,4.26
2019-01-29T11:11:53.627Z,4.28
2019-01-29T11:14:23.061Z,4.15
2019-01-29T11:16:52.463Z,4.10
2019-01-29T11:19:21.898Z,4.09
2019-01-29T11:21:51.257Z,4.13
2019-01-29T11:24:20.842Z,4.11
2019-01-29T11:26:50.387Z,4.12
2019-01-29T11:29:19.834Z,4.11
2019-01-29T11:31:49.354Z,3.93
2019-01-29T11:34:18.687Z,4.02
2019-01-29T11:36:48.034Z,4.14
2019-01-29T11:39:17.425Z,4.32
2019-01-29T11:41:46.715Z,4.52
2019-01-29T11:44:16.168Z,4.53
2019-01-29T11:46:45.916Z,4.42
2019-01-29T11:49:15.436Z,4.46
2019-01-29T11:51:44.990Z,4.22
2019-01-29T11:54:14.590Z,4.19
2019-01-29T11:56:43.948Z,4.30
2019-01-29T11:59:13.261Z,4.33
2019-01-29T12:01:43.686Z,4.30
2019-01-29T12:04:13.454Z,4.42
2019-01-29T12:06:42.779Z,4.56
2019-01-29T12:09:12.298Z,4.87
2019-01-29T12:11:42.524Z,5.24
2019-01-29T12:14:12.131Z,5.41
2019-01-29T12:16:41.499Z,5.20
2019-01-29T12:19:10.931Z,5.15
2019-01-29T12:21:40.125Z,5.08
2019-01-29T12:24:11.270Z,5.31
2019-01-29T12:26:40.502Z,5.54
2019-01-29T12:29:09.868Z,5.95
2019-01-29T12:31:39.164Z,6.18
2019-01-29T12:34:08.608Z,6.29
2019-01-29T12:36:37.990Z,6.18
2019-01-29T12:39:08.888Z,5.96
2019-01-29T12:41:38.352Z,5.69
2019-01-29T12:44:07.760Z,5.44
2019-01-29T12:46:37.112Z,5.31
2019-01-29T12:49:07.558Z,5.23
2019-01-29T12:51:55.292Z,5.15
2019-01-29T12:54:24.806Z,5.17
2019-01-29T12:56:54.106Z,5.06
2019-01-29T12:59:23.561Z,4.97
2019-01-29T13:01:53.040Z,4.81
2019-01-29T13:04:22.448Z,4.72
2019-01-29T13:06:53.694Z,4.78
2019-01-29T13:09:23.215Z,4.90
2019-01-29T13:11:52.519Z,5.46
2019-01-29T13:14:21.939Z,5.65
2019-01-29T13:16:51.244Z,5.70
2019-01-29T13:19:20.734Z,5.55
2019-01-29T13:21:50.153Z,5.42
2019-01-29T13:24:19.507Z,5.20
2019-01-29T13:26:48.948Z,5.01
2019-01-29T13:29:18.310Z,5.08
2019-01-29T13:31:47.591Z,5.15
2019-01-29T13:34:16.953Z,5.09
2019-01-29T13:36:46.240Z,5.08
2019-01-29T13:39:15.660Z,4.96
2019-01-29T13:41:44.945Z,4.87
2019-01-29T13:44:15.306Z,4.70
2019-01-29T13:46:44.666Z,4.64
2019-01-29T13:49:14.078Z,4.55
2019-01-29T13:51:43.486Z,4.63
2019-01-29T13:54:14.544Z,5.01
2019-01-29T13:56:43.882Z,5.36
2019-01-29T13:59:13.396Z,5.35
2019-01-29T14:01:42.784Z,5.17
2019-01-29T14:04:12.084Z,4.92
2019-01-29T14:06:41.542Z,5.01
2019-01-29T14:09:10.997Z,5.31
2019-01-29T14:11:40.427Z,5.75
2019-01-29T14:14:09.744Z,6.07
2019-01-29T14:16:40.054Z,6.18
2019-01-29T14:19:09.411Z,6.20
2019-01-29T14:21:38.930Z,7.00
2019-01-29T14:24:08.372Z,8.23
2019-01-29T14:26:37.692Z,9.23
2019-01-29T14:29:07.094Z,10.06
2019-01-29T14:31:36.528Z,10.41
2019-01-29T14:34:06.418Z,9.53
2019-01-29T14:36:36.194Z,8.39
2019-01-29T14:39:14.351Z,7.16
2019-01-29T14:41:43.820Z,6.28
2019-01-29T14:44:32.204Z,5.56
2019-01-29T14:47:01.894Z,5.19
2019-01-29T14:49:31.348Z,4.96
2019-01-29T14:52:00.825Z,4.84
2019-01-29T14:54:30.202Z,4.69
2019-01-29T14:56:59.600Z,4.64
2019-01-29T14:59:29.028Z,4.62
2019-01-29T15:01:59.530Z,4.60
2019-01-29T15:04:29.023Z,4.56
2019-01-29T15:06:58.729Z,4.53
2019-01-29T15:09:28.160Z,4.49
2019-01-29T15:11:57.559Z,4.42
2019-01-29T15:14:29.934Z,4.34
2019-01-29T15:17:09.204Z,4.29
2019-01-29T15:19:40.325Z,4.22
2019-01-29T15:22:09.849Z,4.13
2019-01-29T15:24:39.368Z,4.03
2019-01-29T15:27:08.947Z,3.96
2019-01-29T15:29:38.377Z,3.91
2019-01-29T15:32:07.896Z,3.84
2019-01-29T15:34:37.248Z,3.80
2019-01-29T15:37:06.794Z,3.76
2019-01-29T15:39:36.302Z,3.70
2019-01-29T15:42:06.089Z,3.62
2019-01-29T15:44:35.964Z,3.54
2019-01-29T15:47:05.722Z,3.46
2019-01-29T15:49:35.433Z,3.36
2019-01-29T15:52:04.974Z,3.25
2019-01-29T15:54:34.449Z,3.16
2019-01-29T15:57:14.048Z,3.10
2019-01-29T15:59:42.778Z,3.05
2019-01-29T16:02:08.878Z,3.02
2019-01-29T16:04:38.234Z,3.00
2019-01-29T16:07:07.774Z,2.96
2019-01-29T16:09:37.319Z,2.92
2019-01-29T16:12:06.965Z,2.85
2019-01-29T16:14:36.324Z,2.80
2019-01-29T16:17:06.460Z,2.75
2019-01-29T16:19:36.105Z,2.74
2019-01-29T16:22:05.905Z,2.72
2019-01-29T16:24:35.409Z,2.68
2019-01-29T16:27:06.912Z,2.64
2019-01-29T16:29:36.161Z,2.58
2019-01-29T16:32:05.769Z,2.50
2019-01-29T16:34:35.369Z,2.43
2019-01-29T16:37:05.117Z,2.39
2019-01-29T16:39:35.087Z,2.37
2019-01-29T16:42:04.611Z,2.36
2019-01-29T16:44:34.107Z,2.36
2019-01-29T16:47:03.652Z,2.34
2019-01-29T16:49:33.078Z,2.35
2019-01-29T16:52:02.552Z,2.36
2019-01-29T16:54:32.193Z,2.37
2019-01-29T16:57:01.890Z,2.37
2019-01-29T16:59:31.682Z,2.34
2019-01-29T17:02:20.244Z,2.29
2019-01-29T17:05:09.115Z,2.18
2019-01-29T17:07:38.745Z,2.07
2019-01-29T17:10:10.029Z,2.03
2019-01-29T17:12:39.904Z,1.93
2019-01-29T17:15:12.758Z,1.84
2019-01-29T17:18:01.392Z,1.77
2019-01-29T17:20:39.016Z,1.65
2019-01-29T17:23:09.594Z,1.50
2019-01-29T17:25:39.225Z,1.39
2019-01-29T17:28:08.909Z,1.22
2019-01-29T17:30:57.450Z,1.16
2019-01-29T17:33:28.167Z,1.16
2019-01-29T17:35:57.755Z,1.27
2019-01-29T17:38:27.912Z,1.34
2019-01-29T17:40:57.526Z,1.32
2019-01-29T17:43:27.262Z,1.27
2019-01-29T17:46:15.953Z,1.23
2019-01-29T17:49:04.619Z,1.16
2019-01-29T17:51:34.372Z,1.03
2019-01-29T17:54:22.986Z,0.91
2019-01-29T17:56:52.716Z,0.88
2019-01-29T17:59:22.427Z,0.86
2019-01-29T18:01:52.205Z,0.77
2019-01-29T18:04:22.070Z,0.66
2019-01-29T18:06:51.890Z,0.56
2019-01-29T18:09:21.643Z,0.50
2019-01-29T18:11:51.362Z,0.43
2019-01-29T18:14:21.116Z,0.39
2019-01-29T18:16:50.751Z,0.35
2019-01-29T18:19:39.426Z,0.31
2019-01-29T18:22:09.285Z,0.25
2019-01-29T18:24:39.038Z,0.25
2019-01-29T18:27:08.763Z,0.22
2019-01-29T18:29:38.395Z,0.25
2019-01-29T18:32:08.251Z,0.28
2019-01-29T18:34:38.161Z,0.34
2019-01-29T18:37:07.882Z,0.41
2019-01-29T18:39:37.729Z,0.43
2019-01-29T18:42:07.643Z,0.42
2019-01-29T18:44:37.617Z,0.35
2019-01-29T18:47:09.953Z,0.28
2019-01-29T18:49:39.691Z,0.21
2019-01-29T18:52:10.735Z,0.16
2019-01-29T18:54:40.426Z,0.14
2019-01-29T18:57:10.169Z,0.11
2019-01-29T18:59:39.865Z,0.04
2019-01-29T19:02:09.666Z,0.02
2019-01-29T19:04:39.441Z,0.01
2019-01-29T19:07:09.371Z,-0.08
2019-01-29T19:09:39.181Z,-0.12
2019-01-29T19:12:09.013Z,-0.18
2019-01-29T19:14:38.743Z,-0.21
2019-01-29T19:17:08.600Z,-0.27
2019-01-29T19:19:39.311Z,-0.37
2019-01-29T19:22:09.022Z,-0.43
2019-01-29T19:24:38.849Z,-0.53
2019-01-29T19:27:08.584Z,-0.61
2019-01-29T19:29:38.396Z,-0.67
2019-01-29T19:32:27.234Z,-0.76
2019-01-29T19:35:15.995Z,-0.85
2019-01-29T19:37:46.247Z,-0.92
2019-01-29T19:40:17.497Z,-0.97
2019-01-29T19:42:48.890Z,-0.99
2019-01-29T19:45:26.837Z,-0.99
2019-01-29T19:47:57.665Z,-1.00
2019-01-29T19:50:28.283Z,-1.03
2019-01-29T19:52:59.232Z,-1.05
2019-01-29T19:55:29.374Z,-1.02
2019-01-29T19:58:08.673Z,-1.04
2019-01-29T20:00:42.390Z,-1.01
2019-01-29T20:03:12.454Z,-0.99
2019-01-29T20:05:42.297Z,-0.91
2019-01-29T20:08:12.200Z,-0.86
2019-01-29T20:10:43.129Z,-0.83
2019-01-29T20:13:12.991Z,-0.83
2019-01-29T20:15:42.836Z,-0.81
2019-01-29T20:18:12.645Z,-0.76
2019-01-29T20:20:42.584Z,-0.71
2019-01-29T20:23:12.573Z,-0.62
2019-01-29T20:25:42.306Z,-0.56
2019-01-29T20:28:30.959Z,-0.51
2019-01-29T20:31:00.832Z,-0.51
2019-01-29T20:33:30.661Z,-0.49
2019-01-29T20:36:00.455Z,-0.46
2019-01-29T20:38:35.108Z,-0.43
2019-01-29T20:41:01.780Z,-0.40
2019-01-29T20:43:31.437Z,-0.41
2019-01-29T20:46:01.465Z,-0.41
2019-01-29T20:48:50.203Z,-0.43
2019-01-29T20:51:21.500Z,-0.42
2019-01-29T20:53:51.193Z,-0.40
2019-01-29T20:56:21.657Z,-0.41
2019-01-29T20:58:52.667Z,-0.45
2019-01-29T21:01:23.067Z,-0.51
2019-01-29T21:03:54.820Z,-0.62
2019-01-29T21:06:25.900Z,-0.73
2019-01-29T21:08:55.574Z,-0.80
2019-01-29T21:11:25.675Z,-0.83
2019-01-29T21:13:55.341Z,-0.86
2019-01-29T21:16:25.172Z,-0.90
2019-01-29T21:18:54.833Z,-0.94
2019-01-29T21:21:24.662Z,-0.98
2019-01-29T21:23:54.115Z,-0.99
2019-01-29T21:26:23.822Z,-0.99
2019-01-29T21:29:02.505Z,-0.98
2019-01-29T21:31:24.889Z,-0.96
2019-01-29T21:33:54.339Z,-0.94
2019-01-29T21:36:24.131Z,-0.91
2019-01-29T21:38:53.702Z,-0.88
2019-01-29T21:41:23.436Z,-0.86
2019-01-29T21:43:52.884Z,-0.85
2019-01-29T21:46:22.380Z,-0.85
2019-01-29T21:48:51.829Z,-0.91
2019-01-29T21:51:21.353Z,-0.94
2019-01-29T21:53:50.699Z,-0.94
2019-01-29T21:56:20.257Z,-0.99
2019-01-29T21:58:49.605Z,-1.05
2019-01-29T22:01:18.931Z,-1.12
2019-01-29T22:03:48.437Z,-1.16
2019-01-29T22:06:17.751Z,-1.17
2019-01-29T22:08:47.215Z,-1.15
2019-01-29T22:11:16.694Z,-1.15
2019-01-29T22:13:46.105Z,-1.12
2019-01-29T22:16:15.478Z,-1.11
2019-01-29T22:18:44.943Z,-1.12
2019-01-29T22:21:14.442Z,-1.13
2019-01-29T22:23:43.829Z,-1.15
2019-01-29T22:26:13.281Z,-1.17
2019-01-29T22:28:43.101Z,-1.16
2019-01-29T22:31:31.511Z,-1.16
2019-01-29T22:34:00.764Z,-1.19
2019-01-29T22:36:30.217Z,-1.22
2019-01-29T22:38:59.574Z,-1.25
2019-01-29T22:41:28.987Z,-1.26
2019-01-29T22:43:58.506Z,-1.28
2019-01-29T22:46:27.857Z,-1.27
2019-01-29T22:48:57.391Z,-1.22
2019-01-29T22:51:26.862Z,-1.15
2019-01-29T22:53:56.385Z,-1.13
2019-01-29T22:56:25.766Z,-1.08
2019-01-29T22:58:55.108Z,-1.04
2019-01-29T23:01:28.981Z,-1.00
2019-01-29T23:04:26.905Z,-1.00
2019-01-29T23:07:01.883Z,-0.99
2019-01-29T23:09:31.333Z,-1.03
2019-01-29T23:12:00.597Z,-1.08
2019-01-29T23:14:30.124Z,-1.13
2019-01-29T23:16:59.537Z,-1.14
2019-01-29T23:19:28.842Z,-1.16
2019-01-29T23:21:58.222Z,-1.13
2019-01-29T23:24:27.682Z,-1.10
2019-01-29T23:26:57.054Z,-1.09
2019-01-29T23:29:26.424Z,-1.09
2019-01-29T23:31:55.863Z,-1.06
2019-01-29T23:34:25.286Z,-1.05
2019-01-29T23:36:54.803Z,-1.11
2019-01-29T23:39:24.375Z,-1.15
2019-01-29T23:41:54.071Z,-1.12
2019-01-29T23:44:23.608Z,-1.08
2019-01-29T23:46:52.973Z,-1.11
2019-01-29T23:49:22.294Z,-1.14
2019-01-29T23:51:51.724Z,-1.15
2019-01-29T23:54:40.293Z,-1.14
2019-01-29T23:57:09.690Z,-1.13
2019-01-29T23:59:39.104Z,-1.10
